sensor_id;sensor_type;location;lat;lon;timestamp;P1;durP1;ratioP1;P2;durP2;ratioP2
57339;SDS011;43174;50.930;18.170;2022-09-09T00:02:20;10.40;;;9.70;;
57339;SDS011;43174;50.930;18.170;2022-09-09T00:05:01;11.50;;;11.00;;
57339;SDS011;43174;50.930;18.170;2022-09-09T00:07:54;11.50;;;11.00;;
57339;SDS011;43174;50.930;18.170;2022-09-09T00:10:32;13.10;;;12.40;;
57339;SDS011;43174;50.930;18.170;2022-09-09T00:13:18;13.60;;;12.90;;
57339;SDS011;43174;50.930;18.170;2022-09-09T00:15:54;13.90;;;13.20;;
57339;SDS011;43174;50.930;18.170;2022-09-09T00:18:36;13.30;;;12.70;;
57339;SDS011;43174;50.930;18.170;2022-09-09T00:21:26;13.00;;;12.40;;
57339;SDS011;43174;50.930;18.170;2022-09-09T00:23:58;12.10;;;11.30;;
57339;SDS011;43174;50.930;18.170;2022-09-09T00:26:33;12.50;;;11.80;;
57339;SDS011;43174;50.930;18.170;2022-09-09T00:31:41;10.70;;;9.90;;
57339;SDS011;43174;50.930;18.170;2022-09-09T00:34:21;10.90;;;10.10;;
57339;SDS011;43174;50.930;18.170;2022-09-09T00:36:49;9.90;;;9.40;;
57339;SDS011;43174;50.930;18.170;2022-09-09T00:39:38;8.90;;;8.50;;
57339;SDS011;43174;50.930;18.170;2022-09-09T00:44:55;8.90;;;8.40;;
57339;SDS011;43174;50.930;18.170;2022-09-09T00:47:43;8.50;;;8.10;;
57339;SDS011;43174;50.930;18.170;2022-09-09T00:50:17;10.30;;;9.80;;
57339;SDS011;43174;50.930;18.170;2022-09-09T00:53:02;10.60;;;10.10;;
57339;SDS011;43174;50.930;18.170;2022-09-09T00:55:49;10.30;;;9.80;;
57339;SDS011;43174;50.930;18.170;2022-09-09T00:58:24;11.00;;;10.40;;
57339;SDS011;43174;50.930;18.170;2022-09-09T01:00:51;12.10;;;11.50;;
57339;SDS011;43174;50.930;18.170;2022-09-09T01:06:02;11.00;;;10.50;;
57339;SDS011;43174;50.930;18.170;2022-09-09T01:10:56;11.10;;;10.60;;
57339;SDS011;43174;50.930;18.170;2022-09-09T01:13:28;10.40;;;9.90;;
57339;SDS011;43174;50.930;18.170;2022-09-09T01:15:59;11.50;;;11.00;;
57339;SDS011;43174;50.930;18.170;2022-09-09T01:18:29;11.30;;;10.70;;
57339;SDS011;43174;50.930;18.170;2022-09-09T01:24:09;11.10;;;10.60;;
57339;SDS011;43174;50.930;18.170;2022-09-09T01:27:00;12.20;;;11.50;;
57339;SDS011;43174;50.930;18.170;2022-09-09T01:29:27;11.70;;;11.20;;
57339;SDS011;43174;50.930;18.170;2022-09-09T01:31:58;11.60;;;11.00;;
57339;SDS011;43174;50.930;18.170;2022-09-09T01:34:25;11.70;;;11.10;;
57339;SDS011;43174;50.930;18.170;2022-09-09T01:36:59;10.80;;;10.30;;
57339;SDS011;43174;50.930;18.170;2022-09-09T01:39:29;10.60;;;10.20;;
57339;SDS011;43174;50.930;18.170;2022-09-09T01:41:55;11.80;;;11.20;;
57339;SDS011;43174;50.930;18.170;2022-09-09T01:44:22;9.90;;;9.50;;
57339;SDS011;43174;50.930;18.170;2022-09-09T01:46:48;11.00;;;10.50;;
57339;SDS011;43174;50.930;18.170;2022-09-09T01:49:14;11.70;;;11.00;;
57339;SDS011;43174;50.930;18.170;2022-09-09T01:51:39;11.70;;;11.20;;
57339;SDS011;43174;50.930;18.170;2022-09-09T01:54:06;10.90;;;10.40;;
57339;SDS011;43174;50.930;18.170;2022-09-09T02:02:10;12.10;;;11.60;;
57339;SDS011;43174;50.930;18.170;2022-09-09T02:07:11;10.20;;;9.80;;
57339;SDS011;43174;50.930;18.170;2022-09-09T02:10:02;12.90;;;12.30;;
57339;SDS011;43174;50.930;18.170;2022-09-09T02:12:40;12.90;;;12.30;;
57339;SDS011;43174;50.930;18.170;2022-09-09T02:15:11;12.60;;;12.00;;
57339;SDS011;43174;50.930;18.170;2022-09-09T02:17:43;13.60;;;13.00;;
57339;SDS011;43174;50.930;18.170;2022-09-09T02:20:12;12.40;;;11.80;;
57339;SDS011;43174;50.930;18.170;2022-09-09T02:22:41;13.10;;;12.50;;
57339;SDS011;43174;50.930;18.170;2022-09-09T02:25:10;12.50;;;12.00;;
57339;SDS011;43174;50.930;18.170;2022-09-09T02:27:37;13.00;;;12.40;;
57339;SDS011;43174;50.930;18.170;2022-09-09T02:30:03;12.40;;;11.80;;
57339;SDS011;43174;50.930;18.170;2022-09-09T02:32:30;11.70;;;11.20;;
57339;SDS011;43174;50.930;18.170;2022-09-09T02:35:02;11.40;;;10.90;;
57339;SDS011;43174;50.930;18.170;2022-09-09T02:37:32;11.40;;;10.90;;
57339;SDS011;43174;50.930;18.170;2022-09-09T02:40:03;11.90;;;11.30;;
57339;SDS011;43174;50.930;18.170;2022-09-09T02:42:30;11.30;;;10.80;;
57339;SDS011;43174;50.930;18.170;2022-09-09T02:44:55;10.70;;;10.10;;
57339;SDS011;43174;50.930;18.170;2022-09-09T02:52:59;10.20;;;9.60;;
57339;SDS011;43174;50.930;18.170;2022-09-09T02:55:37;9.80;;;9.10;;
57339;SDS011;43174;50.930;18.170;2022-09-09T02:58:09;8.80;;;8.30;;
57339;SDS011;43174;50.930;18.170;2022-09-09T03:00:37;9.10;;;8.50;;
57339;SDS011;43174;50.930;18.170;2022-09-09T03:03:05;8.80;;;8.40;;
57339;SDS011;43174;50.930;18.170;2022-09-09T03:05:32;9.00;;;8.60;;
57339;SDS011;43174;50.930;18.170;2022-09-09T03:07:58;8.80;;;8.20;;
57339;SDS011;43174;50.930;18.170;2022-09-09T03:10:24;7.90;;;7.60;;
57339;SDS011;43174;50.930;18.170;2022-09-09T03:12:50;7.50;;;7.20;;
57339;SDS011;43174;50.930;18.170;2022-09-09T03:15:15;8.10;;;7.40;;
57339;SDS011;43174;50.930;18.170;2022-09-09T03:17:41;7.10;;;6.80;;
57339;SDS011;43174;50.930;18.170;2022-09-09T03:20:07;7.10;;;6.80;;
57339;SDS011;43174;50.930;18.170;2022-09-09T03:22:34;6.90;;;6.50;;
57339;SDS011;43174;50.930;18.170;2022-09-09T03:25:00;7.30;;;7.00;;
57339;SDS011;43174;50.930;18.170;2022-09-09T03:27:28;6.60;;;6.10;;
57339;SDS011;43174;50.930;18.170;2022-09-09T03:29:54;6.40;;;6.10;;
57339;SDS011;43174;50.930;18.170;2022-09-09T03:32:21;6.80;;;6.40;;
57339;SDS011;43174;50.930;18.170;2022-09-09T03:34:48;7.00;;;6.60;;
57339;SDS011;43174;50.930;18.170;2022-09-09T03:37:17;6.40;;;6.10;;
57339;SDS011;43174;50.930;18.170;2022-09-09T03:39:44;6.80;;;6.50;;
57339;SDS011;43174;50.930;18.170;2022-09-09T03:42:12;6.80;;;6.40;;
57339;SDS011;43174;50.930;18.170;2022-09-09T03:44:39;6.50;;;6.20;;
57339;SDS011;43174;50.930;18.170;2022-09-09T03:47:07;6.40;;;6.10;;
57339;SDS011;43174;50.930;18.170;2022-09-09T03:49:33;6.60;;;6.30;;
57339;SDS011;43174;50.930;18.170;2022-09-09T03:51:59;6.10;;;5.80;;
57339;SDS011;43174;50.930;18.170;2022-09-09T03:54:26;6.20;;;5.80;;
57339;SDS011;43174;50.930;18.170;2022-09-09T03:56:52;6.20;;;6.00;;
57339;SDS011;43174;50.930;18.170;2022-09-09T03:59:18;6.30;;;6.00;;
57339;SDS011;43174;50.930;18.170;2022-09-09T04:01:44;6.10;;;5.80;;
57339;SDS011;43174;50.930;18.170;2022-09-09T04:04:10;5.90;;;5.70;;
57339;SDS011;43174;50.930;18.170;2022-09-09T04:06:38;6.70;;;6.30;;
57339;SDS011;43174;50.930;18.170;2022-09-09T04:09:04;6.40;;;6.10;;
57339;SDS011;43174;50.930;18.170;2022-09-09T04:11:29;6.80;;;6.50;;
57339;SDS011;43174;50.930;18.170;2022-09-09T04:13:56;6.80;;;6.50;;
57339;SDS011;43174;50.930;18.170;2022-09-09T04:16:21;6.30;;;6.10;;
57339;SDS011;43174;50.930;18.170;2022-09-09T04:18:47;6.20;;;5.90;;
57339;SDS011;43174;50.930;18.170;2022-09-09T04:21:14;5.70;;;5.50;;
57339;SDS011;43174;50.930;18.170;2022-09-09T04:23:41;7.10;;;6.80;;
57339;SDS011;43174;50.930;18.170;2022-09-09T04:26:07;6.50;;;6.30;;
57339;SDS011;43174;50.930;18.170;2022-09-09T04:28:34;6.30;;;6.00;;
57339;SDS011;43174;50.930;18.170;2022-09-09T04:31:05;6.10;;;5.90;;
57339;SDS011;43174;50.930;18.170;2022-09-09T04:33:35;5.80;;;5.60;;
57339;SDS011;43174;50.930;18.170;2022-09-09T04:36:00;6.10;;;5.90;;
57339;SDS011;43174;50.930;18.170;2022-09-09T04:38:27;6.80;;;6.50;;
57339;SDS011;43174;50.930;18.170;2022-09-09T04:40:52;6.90;;;6.60;;
57339;SDS011;43174;50.930;18.170;2022-09-09T04:43:19;6.10;;;5.80;;
57339;SDS011;43174;50.930;18.170;2022-09-09T04:45:47;6.80;;;6.50;;
57339;SDS011;43174;50.930;18.170;2022-09-09T04:48:14;6.60;;;6.30;;
57339;SDS011;43174;50.930;18.170;2022-09-09T04:50:39;7.10;;;6.80;;
57339;SDS011;43174;50.930;18.170;2022-09-09T04:53:06;6.60;;;6.30;;
57339;SDS011;43174;50.930;18.170;2022-09-09T04:55:32;6.80;;;6.50;;
57339;SDS011;43174;50.930;18.170;2022-09-09T04:58:02;6.30;;;6.00;;
57339;SDS011;43174;50.930;18.170;2022-09-09T05:00:30;7.20;;;6.90;;
57339;SDS011;43174;50.930;18.170;2022-09-09T05:02:56;7.00;;;6.70;;
57339;SDS011;43174;50.930;18.170;2022-09-09T05:05:22;7.40;;;7.10;;
57339;SDS011;43174;50.930;18.170;2022-09-09T05:07:48;7.30;;;7.00;;
57339;SDS011;43174;50.930;18.170;2022-09-09T05:10:14;7.10;;;6.70;;
57339;SDS011;43174;50.930;18.170;2022-09-09T05:12:42;7.10;;;6.80;;
57339;SDS011;43174;50.930;18.170;2022-09-09T05:15:07;6.80;;;6.50;;
57339;SDS011;43174;50.930;18.170;2022-09-09T05:17:34;7.30;;;6.90;;
57339;SDS011;43174;50.930;18.170;2022-09-09T05:20:01;7.30;;;6.90;;
57339;SDS011;43174;50.930;18.170;2022-09-09T05:22:28;7.50;;;7.20;;
57339;SDS011;43174;50.930;18.170;2022-09-09T05:24:55;7.20;;;6.90;;
57339;SDS011;43174;50.930;18.170;2022-09-09T05:27:21;7.30;;;7.00;;
57339;SDS011;43174;50.930;18.170;2022-09-09T05:29:47;7.00;;;6.50;;
57339;SDS011;43174;50.930;18.170;2022-09-09T05:32:13;6.90;;;6.50;;
57339;SDS011;43174;50.930;18.170;2022-09-09T05:34:40;6.50;;;6.10;;
57339;SDS011;43174;50.930;18.170;2022-09-09T05:37:06;5.80;;;5.50;;
57339;SDS011;43174;50.930;18.170;2022-09-09T05:39:33;5.50;;;5.30;;
57339;SDS011;43174;50.930;18.170;2022-09-09T05:42:02;5.60;;;5.20;;
57339;SDS011;43174;50.930;18.170;2022-09-09T05:44:29;4.80;;;4.60;;
57339;SDS011;43174;50.930;18.170;2022-09-09T05:46:55;5.30;;;4.90;;
57339;SDS011;43174;50.930;18.170;2022-09-09T05:49:20;5.00;;;4.70;;
57339;SDS011;43174;50.930;18.170;2022-09-09T05:51:46;4.60;;;4.40;;
57339;SDS011;43174;50.930;18.170;2022-09-09T05:54:13;4.90;;;4.50;;
57339;SDS011;43174;50.930;18.170;2022-09-09T05:56:40;4.50;;;4.30;;
57339;SDS011;43174;50.930;18.170;2022-09-09T05:59:07;4.40;;;4.10;;
57339;SDS011;43174;50.930;18.170;2022-09-09T06:01:33;4.30;;;4.10;;
57339;SDS011;43174;50.930;18.170;2022-09-09T06:04:00;4.30;;;4.00;;
57339;SDS011;43174;50.930;18.170;2022-09-09T06:06:27;3.80;;;3.60;;
57339;SDS011;43174;50.930;18.170;2022-09-09T06:08:56;3.50;;;3.30;;
57339;SDS011;43174;50.930;18.170;2022-09-09T06:11:24;4.00;;;3.80;;
57339;SDS011;43174;50.930;18.170;2022-09-09T06:13:51;3.40;;;3.20;;
57339;SDS011;43174;50.930;18.170;2022-09-09T06:16:19;3.50;;;3.30;;
57339;SDS011;43174;50.930;18.170;2022-09-09T06:18:48;3.30;;;3.20;;
57339;SDS011;43174;50.930;18.170;2022-09-09T06:21:21;3.00;;;2.80;;
57339;SDS011;43174;50.930;18.170;2022-09-09T06:23:48;3.30;;;3.10;;
57339;SDS011;43174;50.930;18.170;2022-09-09T06:26:15;4.30;;;2.80;;
57339;SDS011;43174;50.930;18.170;2022-09-09T06:28:43;2.70;;;2.60;;
57339;SDS011;43174;50.930;18.170;2022-09-09T06:31:11;2.70;;;2.50;;
57339;SDS011;43174;50.930;18.170;2022-09-09T06:33:38;2.80;;;2.30;;
57339;SDS011;43174;50.930;18.170;2022-09-09T06:36:07;3.20;;;2.40;;
57339;SDS011;43174;50.930;18.170;2022-09-09T06:38:37;2.20;;;2.10;;
57339;SDS011;43174;50.930;18.170;2022-09-09T06:41:03;2.20;;;2.00;;
57339;SDS011;43174;50.930;18.170;2022-09-09T06:43:31;2.30;;;2.10;;
57339;SDS011;43174;50.930;18.170;2022-09-09T06:46:30;2.50;;;1.90;;
57339;SDS011;43174;50.930;18.170;2022-09-09T06:48:56;2.50;;;2.00;;
57339;SDS011;43174;50.930;18.170;2022-09-09T06:51:28;2.10;;;1.90;;
57339;SDS011;43174;50.930;18.170;2022-09-09T06:53:56;2.20;;;1.70;;
57339;SDS011;43174;50.930;18.170;2022-09-09T06:58:50;2.10;;;1.60;;
57339;SDS011;43174;50.930;18.170;2022-09-09T07:01:18;3.00;;;1.80;;
57339;SDS011;43174;50.930;18.170;2022-09-09T07:03:46;1.40;;;1.30;;
57339;SDS011;43174;50.930;18.170;2022-09-09T07:06:29;1.50;;;1.40;;
57339;SDS011;43174;50.930;18.170;2022-09-09T07:11:30;2.00;;;1.50;;
57339;SDS011;43174;50.930;18.170;2022-09-09T07:13:58;2.50;;;1.60;;
57339;SDS011;43174;50.930;18.170;2022-09-09T07:16:24;2.10;;;1.70;;
57339;SDS011;43174;50.930;18.170;2022-09-09T07:18:53;2.20;;;1.70;;
57339;SDS011;43174;50.930;18.170;2022-09-09T07:21:20;1.80;;;1.30;;
57339;SDS011;43174;50.930;18.170;2022-09-09T07:23:46;1.50;;;1.30;;
57339;SDS011;43174;50.930;18.170;2022-09-09T07:26:13;1.60;;;1.50;;
57339;SDS011;43174;50.930;18.170;2022-09-09T07:28:40;2.20;;;1.80;;
57339;SDS011;43174;50.930;18.170;2022-09-09T07:31:08;2.00;;;1.30;;
57339;SDS011;43174;50.930;18.170;2022-09-09T07:33:42;1.90;;;1.30;;
57339;SDS011;43174;50.930;18.170;2022-09-09T07:36:18;1.40;;;1.20;;
57339;SDS011;43174;50.930;18.170;2022-09-09T07:38:49;1.20;;;1.10;;
57339;SDS011;43174;50.930;18.170;2022-09-09T07:41:18;1.40;;;1.30;;
57339;SDS011;43174;50.930;18.170;2022-09-09T07:43:46;2.80;;;1.10;;
57339;SDS011;43174;50.930;18.170;2022-09-09T07:46:14;2.40;;;1.20;;
57339;SDS011;43174;50.930;18.170;2022-09-09T07:48:44;1.60;;;0.90;;
57339;SDS011;43174;50.930;18.170;2022-09-09T07:51:12;1.30;;;1.20;;
57339;SDS011;43174;50.930;18.170;2022-09-09T07:53:42;1.70;;;1.00;;
57339;SDS011;43174;50.930;18.170;2022-09-09T07:56:09;2.50;;;0.90;;
57339;SDS011;43174;50.930;18.170;2022-09-09T07:58:36;2.00;;;0.90;;
57339;SDS011;43174;50.930;18.170;2022-09-09T08:01:13;2.40;;;0.80;;
57339;SDS011;43174;50.930;18.170;2022-09-09T08:03:46;1.60;;;1.00;;
57339;SDS011;43174;50.930;18.170;2022-09-09T08:06:17;1.10;;;0.90;;
57339;SDS011;43174;50.930;18.170;2022-09-09T08:08:43;2.00;;;0.90;;
57339;SDS011;43174;50.930;18.170;2022-09-09T08:11:11;1.20;;;0.80;;
57339;SDS011;43174;50.930;18.170;2022-09-09T08:13:40;1.50;;;0.90;;
57339;SDS011;43174;50.930;18.170;2022-09-09T08:16:07;2.40;;;0.90;;
57339;SDS011;43174;50.930;18.170;2022-09-09T08:18:35;1.30;;;0.90;;
57339;SDS011;43174;50.930;18.170;2022-09-09T08:21:04;2.50;;;0.90;;
57339;SDS011;43174;50.930;18.170;2022-09-09T08:23:32;1.90;;;0.70;;
57339;SDS011;43174;50.930;18.170;2022-09-09T08:26:06;1.00;;;0.70;;
57339;SDS011;43174;50.930;18.170;2022-09-09T08:28:34;1.50;;;0.90;;
57339;SDS011;43174;50.930;18.170;2022-09-09T08:34:05;0.90;;;0.60;;
57339;SDS011;43174;50.930;18.170;2022-09-09T08:36:36;2.40;;;0.80;;
57339;SDS011;43174;50.930;18.170;2022-09-09T08:39:04;2.80;;;0.90;;
57339;SDS011;43174;50.930;18.170;2022-09-09T08:41:43;1.90;;;0.90;;
57339;SDS011;43174;50.930;18.170;2022-09-09T08:44:18;1.30;;;1.00;;
57339;SDS011;43174;50.930;18.170;2022-09-09T08:52:28;1.20;;;0.70;;
57339;SDS011;43174;50.930;18.170;2022-09-09T08:54:58;0.90;;;0.70;;
57339;SDS011;43174;50.930;18.170;2022-09-09T08:57:30;0.90;;;0.60;;
57339;SDS011;43174;50.930;18.170;2022-09-09T08:59:57;1.50;;;0.70;;
57339;SDS011;43174;50.930;18.170;2022-09-09T09:11:52;1.40;;;0.80;;
57339;SDS011;43174;50.930;18.170;2022-09-09T09:14:23;0.80;;;0.80;;
57339;SDS011;43174;50.930;18.170;2022-09-09T09:19:24;1.10;;;0.90;;
57339;SDS011;43174;50.930;18.170;2022-09-09T09:27:13;1.30;;;0.80;;
57339;SDS011;43174;50.930;18.170;2022-09-09T09:29:41;2.20;;;0.90;;
57339;SDS011;43174;50.930;18.170;2022-09-09T09:32:10;1.50;;;1.10;;
57339;SDS011;43174;50.930;18.170;2022-09-09T09:34:38;1.80;;;1.00;;
57339;SDS011;43174;50.930;18.170;2022-09-09T09:37:11;1.10;;;1.00;;
57339;SDS011;43174;50.930;18.170;2022-09-09T09:39:42;1.20;;;0.90;;
57339;SDS011;43174;50.930;18.170;2022-09-09T09:42:11;3.20;;;0.90;;
57339;SDS011;43174;50.930;18.170;2022-09-09T09:44:40;1.70;;;1.10;;
57339;SDS011;43174;50.930;18.170;2022-09-09T09:47:08;1.20;;;0.90;;
57339;SDS011;43174;50.930;18.170;2022-09-09T09:49:36;2.70;;;1.10;;
57339;SDS011;43174;50.930;18.170;2022-09-09T09:52:03;3.90;;;1.30;;
57339;SDS011;43174;50.930;18.170;2022-09-09T09:54:31;2.10;;;1.20;;
57339;SDS011;43174;50.930;18.170;2022-09-09T09:57:11;1.40;;;0.90;;
57339;SDS011;43174;50.930;18.170;2022-09-09T09:59:38;1.00;;;0.70;;
57339;SDS011;43174;50.930;18.170;2022-09-09T10:02:06;1.60;;;1.00;;
57339;SDS011;43174;50.930;18.170;2022-09-09T10:04:43;1.90;;;0.90;;
57339;SDS011;43174;50.930;18.170;2022-09-09T10:07:11;2.50;;;0.80;;
57339;SDS011;43174;50.930;18.170;2022-09-09T10:09:53;1.90;;;0.60;;
57339;SDS011;43174;50.930;18.170;2022-09-09T10:20:43;2.70;;;0.70;;
57339;SDS011;43174;50.930;18.170;2022-09-09T10:31:10;1.10;;;0.50;;
57339;SDS011;43174;50.930;18.170;2022-09-09T10:36:42;1.00;;;0.50;;
57339;SDS011;43174;50.930;18.170;2022-09-09T10:44:56;0.90;;;0.60;;
57339;SDS011;43174;50.930;18.170;2022-09-09T10:47:39;1.70;;;0.50;;
57339;SDS011;43174;50.930;18.170;2022-09-09T10:53:02;1.40;;;0.70;;
57339;SDS011;43174;50.930;18.170;2022-09-09T10:55:41;1.80;;;0.50;;
57339;SDS011;43174;50.930;18.170;2022-09-09T10:58:18;1.20;;;0.60;;
57339;SDS011;43174;50.930;18.170;2022-09-09T11:00:52;3.50;;;0.50;;
57339;SDS011;43174;50.930;18.170;2022-09-09T11:03:21;2.20;;;0.60;;
57339;SDS011;43174;50.930;18.170;2022-09-09T11:05:51;1.00;;;0.50;;
57339;SDS011;43174;50.930;18.170;2022-09-09T11:08:25;2.10;;;0.50;;
57339;SDS011;43174;50.930;18.170;2022-09-09T11:10:59;1.90;;;0.50;;
57339;SDS011;43174;50.930;18.170;2022-09-09T11:16:19;1.20;;;0.70;;
57339;SDS011;43174;50.930;18.170;2022-09-09T11:19:04;1.80;;;0.70;;
57339;SDS011;43174;50.930;18.170;2022-09-09T11:21:49;2.60;;;0.60;;
57339;SDS011;43174;50.930;18.170;2022-09-09T11:24:25;1.20;;;0.60;;
57339;SDS011;43174;50.930;18.170;2022-09-09T11:30:42;2.80;;;0.70;;
57339;SDS011;43174;50.930;18.170;2022-09-09T11:42:21;1.30;;;0.60;;
57339;SDS011;43174;50.930;18.170;2022-09-09T11:44:49;1.30;;;0.60;;
57339;SDS011;43174;50.930;18.170;2022-09-09T11:47:20;1.40;;;0.60;;
57339;SDS011;43174;50.930;18.170;2022-09-09T11:49:53;7.30;;;0.70;;
57339;SDS011;43174;50.930;18.170;2022-09-09T11:52:20;2.20;;;0.70;;
57339;SDS011;43174;50.930;18.170;2022-09-09T11:54:48;0.80;;;0.50;;
57339;SDS011;43174;50.930;18.170;2022-09-09T11:59:51;1.00;;;0.50;;
57339;SDS011;43174;50.930;18.170;2022-09-09T12:02:21;1.70;;;0.60;;
57339;SDS011;43174;50.930;18.170;2022-09-09T12:04:50;1.20;;;0.80;;
57339;SDS011;43174;50.930;18.170;2022-09-09T12:07:38;0.90;;;0.40;;
57339;SDS011;43174;50.930;18.170;2022-09-09T12:12:37;2.40;;;0.50;;
57339;SDS011;43174;50.930;18.170;2022-09-09T12:17:37;0.80;;;0.50;;
57339;SDS011;43174;50.930;18.170;2022-09-09T12:31:08;0.80;;;0.50;;
57339;SDS011;43174;50.930;18.170;2022-09-09T12:33:53;2.00;;;0.60;;
57339;SDS011;43174;50.930;18.170;2022-09-09T12:36:29;1.20;;;0.60;;
57339;SDS011;43174;50.930;18.170;2022-09-09T12:38:59;0.60;;;0.40;;
57339;SDS011;43174;50.930;18.170;2022-09-09T12:41:36;1.30;;;0.60;;
57339;SDS011;43174;50.930;18.170;2022-09-09T12:44:10;1.30;;;0.60;;
57339;SDS011;43174;50.930;18.170;2022-09-09T12:46:38;0.90;;;0.60;;
57339;SDS011;43174;50.930;18.170;2022-09-09T12:49:18;1.90;;;0.50;;
57339;SDS011;43174;50.930;18.170;2022-09-09T12:51:51;0.90;;;0.50;;
57339;SDS011;43174;50.930;18.170;2022-09-09T12:54:17;0.90;;;0.60;;
57339;SDS011;43174;50.930;18.170;2022-09-09T12:56:45;1.10;;;0.50;;
57339;SDS011;43174;50.930;18.170;2022-09-09T16:48:16;2.80;;;1.50;;
57339;SDS011;43174;50.930;18.170;2022-09-09T16:50:42;2.60;;;1.40;;
57339;SDS011;43174;50.930;18.170;2022-09-09T16:53:07;7.40;;;3.10;;
57339;SDS011;43174;50.930;18.170;2022-09-09T16:55:37;3.00;;;1.10;;
57339;SDS011;43174;50.930;18.170;2022-09-09T16:58:04;4.20;;;1.30;;
57339;SDS011;43174;50.930;18.170;2022-09-09T17:00:30;2.10;;;1.20;;
57339;SDS011;43174;50.930;18.170;2022-09-09T17:02:56;1.20;;;1.00;;
57339;SDS011;43174;50.930;18.170;2022-09-09T17:05:22;1.30;;;0.90;;
57339;SDS011;43174;50.930;18.170;2022-09-09T17:07:48;2.50;;;1.10;;
57339;SDS011;43174;50.930;18.170;2022-09-09T17:10:14;1.50;;;1.00;;
57339;SDS011;43174;50.930;18.170;2022-09-09T18:23:45;3.30;;;3.00;;
57339;SDS011;43174;50.930;18.170;2022-09-09T18:31:15;3.80;;;3.50;;
57339;SDS011;43174;50.930;18.170;2022-09-09T18:33:45;7.00;;;2.70;;
57339;SDS011;43174;50.930;18.170;2022-09-09T18:36:15;3.20;;;2.30;;
57339;SDS011;43174;50.930;18.170;2022-09-09T18:48:33;6.20;;;5.70;;
57339;SDS011;43174;50.930;18.170;2022-09-09T18:51:05;6.90;;;5.10;;
57339;SDS011;43174;50.930;18.170;2022-09-09T18:53:33;10.80;;;9.90;;
57339;SDS011;43174;50.930;18.170;2022-09-09T18:56:00;9.50;;;8.50;;
57339;SDS011;43174;50.930;18.170;2022-09-09T18:58:35;5.30;;;4.80;;
57339;SDS011;43174;50.930;18.170;2022-09-09T19:01:02;3.80;;;3.50;;
57339;SDS011;43174;50.930;18.170;2022-09-09T19:45:07;5.00;;;4.50;;
57339;SDS011;43174;50.930;18.170;2022-09-09T19:52:30;5.10;;;4.60;;
57339;SDS011;43174;50.930;18.170;2022-09-09T19:54:56;5.30;;;4.10;;
57339;SDS011;43174;50.930;18.170;2022-09-09T19:57:22;5.70;;;4.90;;
57339;SDS011;43174;50.930;18.170;2022-09-09T19:59:48;5.00;;;4.60;;
57339;SDS011;43174;50.930;18.170;2022-09-09T20:02:14;4.60;;;4.20;;
57339;SDS011;43174;50.930;18.170;2022-09-09T20:04:40;5.10;;;4.70;;
57339;SDS011;43174;50.930;18.170;2022-09-09T20:07:07;5.00;;;4.50;;
57339;SDS011;43174;50.930;18.170;2022-09-09T20:09:33;6.70;;;5.20;;
57339;SDS011;43174;50.930;18.170;2022-09-09T20:11:59;10.90;;;7.00;;
57339;SDS011;43174;50.930;18.170;2022-09-09T20:14:25;7.90;;;6.90;;
57339;SDS011;43174;50.930;18.170;2022-09-09T20:16:50;5.80;;;5.30;;
57339;SDS011;43174;50.930;18.170;2022-09-09T20:19:16;5.30;;;4.50;;
57339;SDS011;43174;50.930;18.170;2022-09-09T20:21:43;6.00;;;3.90;;
57339;SDS011;43174;50.930;18.170;2022-09-09T23:13:09;3.40;;;2.60;;
57339;SDS011;43174;50.930;18.170;2022-09-09T23:15:35;3.00;;;1.90;;
57339;SDS011;43174;50.930;18.170;2022-09-09T23:32:39;3.00;;;1.30;;
57339;SDS011;43174;50.930;18.170;2022-09-09T23:35:04;1.70;;;1.20;;
57339;SDS011;43174;50.930;18.170;2022-09-09T23:37:32;1.90;;;1.00;;
57339;SDS011;43174;50.930;18.170;2022-09-09T23:39:58;1.50;;;1.00;;
57339;SDS011;43174;50.930;18.170;2022-09-09T23:42:24;1.80;;;1.40;;
57339;SDS011;43174;50.930;18.170;2022-09-09T23:44:51;2.00;;;1.20;;
57339;SDS011;43174;50.930;18.170;2022-09-09T23:47:17;2.30;;;1.30;;
57339;SDS011;43174;50.930;18.170;2022-09-09T23:49:42;1.60;;;1.00;;
57339;SDS011;43174;50.930;18.170;2022-09-09T23:52:08;5.80;;;1.20;;
57339;SDS011;43174;50.930;18.170;2022-09-09T23:54:34;2.10;;;1.00;;
57339;SDS011;43174;50.930;18.170;2022-09-09T23:57:00;2.40;;;1.00;;
57339;SDS011;43174;50.930;18.170;2022-09-09T23:59:30;3.70;;;1.00;;
